Time;durP1;ratioP1;P1;durP2;ratioP2;P2;SDS_P1;SDS_P2;PMS_P1;PMS_P2;Temp;Humidity;BMP_temperature;BMP_pressure;BME280_temperature;BME280_humidity;BME280_pressure;Samples;Min_cycle;Max_cycle;Signal;HPM_P1;HPM_P2
2021/06/09 00:01:44;;;;;;;18.65;14.05;;;17.90;99.90;;;;;;12381574;28;21517;-36
2021/06/09 00:07:46;;;;;;;20.35;14.73;;;17.80;99.90;;;;;;12383203;28;20060;-39
2021/06/09 00:13:48;;;;;;;23.10;15.25;;;17.80;99.90;;;;;;12385315;28;20050;-37
2021/06/09 00:19:50;;;;;;;17.80;14.40;;;17.70;99.90;;;;;;12386682;28;20050;-36
2021/06/09 00:25:55;;;;;;;18.95;15.45;;;17.70;99.90;;;;;;12386056;28;20091;-38
2021/06/09 00:31:57;;;;;;;26.95;13.10;;;17.70;99.90;;;;;;12385944;28;20074;-36
2021/06/09 00:37:59;;;;;;;21.63;13.00;;;17.70;99.90;;;;;;12384760;28;20132;-37
2021/06/09 00:44:05;;;;;;;20.15;14.32;;;17.60;99.90;;;;;;12385535;28;20486;-37
2021/06/09 00:50:07;;;;;;;19.92;14.35;;;17.40;99.90;;;;;;12383685;28;20054;-43
2021/06/09 00:56:14;;;;;;;17.60;15.40;;;17.40;99.90;;;;;;12385724;28;20585;-36
2021/06/09 01:02:16;;;;;;;20.38;15.27;;;17.30;99.90;;;;;;12386899;28;20054;-38
2021/06/09 01:08:19;;;;;;;18.13;14.40;;;17.20;99.90;;;;;;12386165;28;20072;-39
2021/06/09 01:14:22;;;;;;;18.13;14.43;;;17.10;99.90;;;;;;12387150;28;20053;-36
2021/06/09 01:20:28;;;;;;;18.43;13.57;;;17.20;99.90;;;;;;12384155;28;20145;-37
2021/06/09 01:26:35;;;;;;;21.75;14.70;;;17.10;99.90;;;;;;12384494;28;20131;-37
2021/06/09 01:32:37;;;;;;;21.50;15.00;;;17.10;99.90;;;;;;12382694;28;20046;-35
2021/06/09 01:38:39;;;;;;;19.00;14.75;;;17.10;99.90;;;;;;12386661;28;20045;-37
2021/06/09 01:44:41;;;;;;;15.93;13.55;;;17.10;99.90;;;;;;12387880;28;20165;-36
2021/06/09 01:50:43;;;;;;;17.52;13.88;;;17.10;99.90;;;;;;12385701;28;20618;-36
2021/06/09 01:56:46;;;;;;;22.92;13.85;;;17.20;99.90;;;;;;12380764;28;20056;-36
2021/06/09 02:02:48;;;;;;;18.43;13.73;;;17.20;99.90;;;;;;12381966;28;20053;-37
2021/06/09 02:08:50;;;;;;;19.70;13.73;;;17.20;99.90;;;;;;12384871;28;20054;-36
2021/06/09 02:14:52;;;;;;;18.05;14.55;;;17.10;99.90;;;;;;12388214;28;20073;-37
2021/06/09 02:20:57;;;;;;;21.33;14.48;;;17.00;99.90;;;;;;12386704;28;20082;-36
2021/06/09 02:26:59;;;;;;;22.25;15.45;;;17.00;99.90;;;;;;12381663;28;20053;-38
2021/06/09 02:33:03;;;;;;;19.33;13.93;;;17.00;99.90;;;;;;12381095;28;20046;-36
2021/06/09 02:39:05;;;;;;;16.52;14.13;;;17.10;99.90;;;;;;12387782;28;20855;-35
2021/06/09 02:45:14;;;;;;;18.65;14.48;;;16.90;99.90;;;;;;12387640;28;20136;-36
2021/06/09 02:51:19;;;;;;;20.23;13.98;;;17.00;99.90;;;;;;12385282;28;20050;-36
2021/06/09 02:57:42;;;;;;;17.02;14.98;;;16.90;99.90;;;;;;12386416;28;20054;-37
2021/06/09 03:03:54;;;;;;;23.75;13.57;;;17.00;99.90;;;;;;12385035;28;20073;-39
2021/06/09 03:10:33;;;;;;;21.27;14.60;;;16.80;99.90;;;;;;12392635;28;20479;-37
2021/06/09 03:16:46;;;;;;;22.20;16.05;;;16.80;99.90;;;;;;12444852;28;20140;-36
2021/06/09 03:23:09;;;;;;;23.75;17.83;;;16.70;99.90;;;;;;12444430;28;20088;-36
2021/06/09 03:29:29;;;;;;;23.33;16.00;;;16.60;99.90;;;;;;12441917;28;20091;-36
2021/06/09 03:35:37;;;;;;;21.05;15.52;;;16.70;99.90;;;;;;12452442;28;20132;-35
2021/06/09 03:41:43;;;;;;;21.17;16.90;;;16.40;99.90;;;;;;12428371;28;20144;-36
2021/06/09 03:47:46;;;;;;;23.52;17.77;;;16.40;99.90;;;;;;12409684;28;20049;-36
2021/06/09 03:53:49;;;;;;;24.00;19.75;;;16.20;99.90;;;;;;12393177;28;20085;-37
2021/06/09 03:59:53;;;;;;;23.45;18.98;;;16.20;99.90;;;;;;12393087;28;20429;-38
2021/06/09 04:05:57;;;;;;;24.63;19.33;;;16.40;99.90;;;;;;12388598;28;20042;-36
2021/06/09 04:12:05;;;;;;;25.80;19.27;;;16.50;99.90;;;;;;12388257;28;20073;-39
2021/06/09 04:18:08;;;;;;;27.05;20.25;;;16.60;99.90;;;;;;12389944;28;20509;-37
2021/06/09 04:24:10;;;;;;;21.92;17.67;;;16.70;99.90;;;;;;12385923;28;20058;-37
2021/06/09 04:30:15;;;;;;;27.52;19.17;;;16.70;99.90;;;;;;12389781;28;20145;-36
2021/06/09 04:36:17;;;;;;;25.35;21.25;;;16.80;99.90;;;;;;12386742;28;20173;-36
2021/06/09 04:42:21;;;;;;;25.23;19.20;;;16.60;99.90;;;;;;12386562;28;20173;-37
2021/06/09 04:48:23;;;;;;;;;;;16.60;99.90;;;;;;12384193;28;20089;-36
2021/06/09 04:54:26;;;;;;;23.35;19.67;;;16.70;99.90;;;;;;12386893;28;19929;-36
2021/06/09 05:00:28;;;;;;;22.27;19.90;;;16.80;99.90;;;;;;12387742;28;20429;-37
2021/06/09 05:06:30;;;;;;;22.23;19.08;;;16.90;99.90;;;;;;12386913;28;20108;-36
2021/06/09 05:12:37;;;;;;;23.25;19.90;;;16.80;99.90;;;;;;12383744;28;20050;-37
2021/06/09 05:18:45;;;;;;;23.05;19.35;;;16.90;99.90;;;;;;12385095;28;20061;-36
2021/06/09 05:24:49;;;;;;;22.40;20.00;;;17.00;99.90;;;;;;12386625;28;20038;-37
2021/06/09 05:30:55;;;;;;;21.52;18.55;;;17.20;99.90;;;;;;12387956;28;20044;-38
2021/06/09 05:36:57;;;;;;;22.30;19.90;;;17.30;99.90;;;;;;12382624;28;20748;-37
2021/06/09 05:43:00;;;;;;;22.02;17.23;;;17.40;99.90;;;;;;12383397;28;20042;-36
2021/06/09 05:49:02;;;;;;;20.10;16.50;;;17.60;99.90;;;;;;12386133;28;20070;-39
2021/06/09 05:55:05;;;;;;;22.67;18.95;;;17.70;99.90;;;;;;12381342;28;20169;-36
2021/06/09 06:01:10;;;;;;;22.35;18.90;;;17.80;99.90;;;;;;12384369;28;20103;-36
2021/06/09 06:07:12;;;;;;;24.13;20.25;;;17.80;99.90;;;;;;12384622;28;20557;-37
2021/06/09 06:13:14;;;;;;;26.17;21.10;;;18.00;99.90;;;;;;12378427;28;20768;-36
2021/06/09 06:19:16;;;;;;;22.33;19.00;;;18.20;99.90;;;;;;12378214;28;20111;-36
2021/06/09 06:25:24;;;;;;;22.73;19.52;;;18.30;99.90;;;;;;12382454;28;20046;-37
2021/06/09 06:31:29;;;;;;;23.40;18.52;;;18.30;99.90;;;;;;12382285;28;20085;-36
2021/06/09 06:37:34;;;;;;;26.48;19.85;;;18.40;99.90;;;;;;12375692;28;20062;-37
2021/06/09 06:43:38;;;;;;;23.65;17.52;;;18.60;99.90;;;;;;12379316;28;20046;-36
2021/06/09 06:49:42;;;;;;;;;;;18.70;99.90;;;;;;12388872;28;20487;-39
2021/06/09 06:55:44;;;;;;;33.35;26.50;;;18.90;99.90;;;;;;12388365;28;20476;-40
2021/06/09 07:01:46;;;;;;;32.03;26.63;;;18.90;99.90;;;;;;12393212;28;20624;-36
2021/06/09 07:07:49;;;;;;;34.65;28.55;;;18.90;99.90;;;;;;12394943;28;20138;-36
2021/06/09 07:13:52;;;;;;;32.80;24.30;;;19.10;99.90;;;;;;12392243;28;20537;-36
2021/06/09 07:19:54;;;;;;;30.93;25.57;;;19.20;99.90;;;;;;12389134;28;20077;-40
2021/06/09 07:25:56;;;;;;;30.73;25.35;;;19.30;99.90;;;;;;12394191;28;20070;-36
2021/06/09 07:31:59;;;;;;;29.45;23.42;;;19.50;99.90;;;;;;12386137;28;20042;-36
2021/06/09 07:38:09;;;;;;;31.52;24.60;;;19.60;99.90;;;;;;12391460;28;20100;-36
2021/06/09 07:44:15;;;;;;;32.97;26.67;;;19.60;99.90;;;;;;12387879;28;20116;-39
2021/06/09 07:50:32;;;;;;;29.83;24.52;;;19.60;99.90;;;;;;12385663;28;20141;-37
2021/06/09 07:56:36;;;;;;;29.75;23.50;;;19.80;99.90;;;;;;12388847;28;20058;-37
2021/06/09 08:02:44;;;;;;;28.98;25.20;;;20.00;99.90;;;;;;12390548;28;20525;-36
2021/06/09 08:08:46;;;;;;;28.83;23.85;;;20.10;99.90;;;;;;12392679;28;20915;-37
2021/06/09 08:14:48;;;;;;;31.77;26.33;;;20.30;99.90;;;;;;12391601;28;20161;-38
2021/06/09 08:21:13;;;;;;;30.88;24.58;;;20.40;99.90;;;;;;12389747;28;20073;-36
2021/06/09 08:27:16;;;;;;;26.25;23.17;;;20.60;99.90;;;;;;12390246;28;20077;-37
2021/06/09 08:33:18;;;;;;;25.67;22.42;;;20.70;99.90;;;;;;12387567;28;21094;-36
2021/06/09 08:39:21;;;;;;;30.90;23.60;;;20.80;99.90;;;;;;12394379;28;20050;-37
2021/06/09 08:45:26;;;;;;;24.58;21.65;;;21.00;99.90;;;;;;12384463;28;20073;-36
2021/06/09 08:51:30;;;;;;;31.50;24.52;;;21.20;99.90;;;;;;12386626;28;20157;-36
2021/06/09 08:57:33;;;;;;;25.70;22.90;;;21.30;99.90;;;;;;12387014;28;20103;-36
2021/06/09 09:03:36;;;;;;;15.97;13.70;;;21.40;99.90;;;;;;12385668;28;20126;-37
2021/06/09 09:09:38;;;;;;;18.85;16.48;;;21.70;99.90;;;;;;12387016;28;20304;-37
2021/06/09 09:15:40;;;;;;;19.92;15.50;;;21.80;99.90;;;;;;12388305;28;20606;-37
2021/06/09 09:21:43;;;;;;;20.77;16.67;;;21.80;99.90;;;;;;12379790;28;20489;-36
2021/06/09 09:27:55;;;;;;;;;;;21.90;99.90;;;;;;12384405;28;20153;-36
2021/06/09 09:33:57;;;;;;;16.23;12.18;;;22.00;99.90;;;;;;12383188;28;19926;-37
2021/06/09 09:40:06;;;;;;;13.70;11.55;;;22.40;99.90;;;;;;12386734;28;20107;-36
2021/06/09 09:46:10;;;;;;;16.48;12.32;;;22.80;99.90;;;;;;12438399;28;20136;-37
2021/06/09 09:52:12;;;;;;;12.35;10.82;;;23.20;99.90;;;;;;12415893;28;20152;-37
2021/06/09 09:58:24;;;;;;;11.23;9.20;;;23.30;99.90;;;;;;12382332;28;20054;-36
2021/06/09 10:04:29;;;;;;;10.90;8.50;;;23.70;99.90;;;;;;12381043;28;20042;-42
2021/06/09 10:10:31;;;;;;;14.25;8.77;;;23.50;99.90;;;;;;12381379;28;20070;-37
2021/06/09 10:16:34;;;;;;;11.02;9.43;;;23.50;99.90;;;;;;12379783;28;20108;-37
2021/06/09 10:22:37;;;;;;;9.45;7.63;;;23.20;99.90;;;;;;12372644;28;20062;-36
2021/06/09 10:29:07;;;;;;;9.00;7.70;;;23.30;99.90;;;;;;12384500;28;20049;-36
2021/06/09 10:35:09;;;;;;;11.05;9.30;;;23.80;99.90;;;;;;12379452;28;20143;-38
2021/06/09 10:41:12;;;;;;;12.87;9.77;;;24.10;99.90;;;;;;12377803;28;20050;-37
2021/06/09 10:47:26;;;;;;;11.85;9.68;;;24.60;99.90;;;;;;12370436;28;20058;-36
2021/06/09 10:53:28;;;;;;;8.88;6.57;;;24.60;99.90;;;;;;12378653;28;20157;-37
2021/06/09 10:59:32;;;;;;;9.07;7.43;;;24.70;99.90;;;;;;12380819;28;20046;-38
2021/06/09 11:05:35;;;;;;;9.52;7.72;;;24.20;99.90;;;;;;12376751;28;20046;-37
2021/06/09 11:11:37;;;;;;;11.15;8.32;;;24.40;99.90;;;;;;12382430;28;20047;-38
2021/06/09 11:17:40;;;;;;;10.18;8.40;;;24.90;99.90;;;;;;12378739;28;20137;-38
2021/06/09 11:23:43;;;;;;;11.75;8.90;;;25.50;99.90;;;;;;12378962;28;20046;-36
2021/06/09 11:29:45;;;;;;;;;;;25.70;99.90;;;;;;12379050;28;20062;-37
2021/06/09 11:35:49;;;;;;;14.40;7.68;;;25.40;99.90;;;;;;12381260;28;19956;-38
2021/06/09 11:41:53;;;;;;;9.85;7.30;;;24.40;99.90;;;;;;12383776;28;20397;-37
2021/06/09 11:48:14;;;;;;;7.70;6.90;;;25.20;99.90;;;;;;12384650;28;20050;-37
2021/06/09 11:54:25;;;;;;;9.93;8.82;;;25.90;99.90;;;;;;12386469;28;20042;-37
2021/06/09 12:00:27;;;;;;;10.98;8.15;;;26.10;99.90;;;;;;12387347;28;20108;-37
2021/06/09 12:06:29;;;;;;;12.02;10.10;;;26.80;99.90;;;;;;12386412;28;20054;-38
2021/06/09 12:12:33;;;;;;;14.25;8.82;;;26.60;99.90;;;;;;12383876;28;20458;-36
2021/06/09 12:18:35;;;;;;;11.00;8.90;;;27.00;99.90;;;;;;12387950;28;20046;-37
2021/06/09 12:24:38;;;;;;;12.93;10.47;;;27.00;99.90;;;;;;12381428;28;20046;-39
2021/06/09 12:30:43;;;;;;;14.13;7.80;;;26.80;99.90;;;;;;12385292;28;20045;-37
2021/06/09 12:36:58;;;;;;;11.27;9.73;;;26.80;99.90;;;;;;12383500;28;20042;-37
2021/06/09 12:43:01;;;;;;;13.50;8.55;;;27.30;99.90;;;;;;12386657;28;20107;-37
2021/06/09 12:49:03;;;;;;;8.32;7.25;;;27.60;99.90;;;;;;12381952;28;20310;-40
2021/06/09 12:55:34;;;;;;;9.33;7.43;;;27.40;99.90;;;;;;12385573;28;20108;-36
2021/06/09 13:01:36;;;;;;;10.60;7.75;;;27.50;99.90;;;;;;12384842;28;20048;-37
2021/06/09 13:07:38;;;;;;;8.63;7.53;;;27.90;99.90;;;;;;12383439;28;20057;-36
2021/06/09 13:13:55;;;;;;;10.00;8.20;;;27.90;99.90;;;;;;12382419;28;20689;-36
2021/06/09 13:20:11;;;;;;;8.15;6.63;;;27.90;99.90;;;;;;12382956;28;20181;-38
2021/06/09 13:26:15;;;;;;;9.95;7.38;;;28.40;99.90;;;;;;12434198;28;20067;-36
2021/06/09 13:32:26;;;;;;;12.00;8.00;;;28.30;99.90;;;;;;12415013;28;20054;-38
2021/06/09 13:38:29;;;;;;;10.63;7.88;;;27.60;99.90;;;;;;12389542;28;20079;-37
2021/06/09 13:44:41;;;;;;;7.10;6.40;;;27.30;99.90;;;;;;12383938;28;20062;-36
2021/06/09 13:51:05;;;;;;;10.10;7.05;;;28.10;99.90;;;;;;12381413;28;20459;-36
2021/06/09 13:57:15;;;;;;;7.60;6.47;;;27.70;99.90;;;;;;12381149;28;20080;-36
2021/06/09 14:03:27;;;;;;;9.35;7.22;;;26.90;99.90;;;;;;12371386;28;20062;-36
2021/06/09 14:09:28;;;;;;;8.48;6.10;;;27.00;99.90;;;;;;12383985;28;20043;-38
2021/06/09 14:15:35;;;;;;;8.90;6.33;;;27.10;99.90;;;;;;12376679;28;20115;-37
2021/06/09 14:21:37;;;;;;;7.82;6.28;;;27.30;99.90;;;;;;12379377;28;20529;-36
2021/06/09 14:28:01;;;;;;;8.75;7.18;;;26.80;99.90;;;;;;12377620;28;20049;-37
2021/06/09 14:34:13;;;;;;;8.80;6.50;;;26.20;99.90;;;;;;12381581;28;20070;-37
2021/06/09 14:40:15;;;;;;;7.50;5.97;;;25.20;99.90;;;;;;12381598;28;20050;-36
2021/06/09 14:46:21;;;;;;;8.40;7.53;;;25.00;99.90;;;;;;12384330;28;20432;-36
2021/06/09 14:52:39;;;;;;;7.30;6.43;;;24.60;99.90;;;;;;12381166;28;20140;-36
2021/06/09 14:58:42;;;;;;;8.60;7.65;;;24.60;99.90;;;;;;12377607;28;20193;-36
2021/06/09 15:04:46;;;;;;;7.88;6.95;;;24.50;99.90;;;;;;12376619;28;20677;-36
2021/06/09 15:10:48;;;;;;;7.72;6.95;;;24.50;99.90;;;;;;12385475;28;20095;-37
2021/06/09 15:16:50;;;;;;;8.68;7.07;;;24.60;99.90;;;;;;12391376;28;20133;-36
2021/06/09 15:22:51;;;;;;;8.93;6.63;;;24.40;99.90;;;;;;12384742;28;20060;-36
2021/06/09 15:28:57;;;;;;;8.63;6.50;;;24.00;99.90;;;;;;12390168;28;20092;-36
2021/06/09 15:35:09;;;;;;;6.75;5.95;;;24.30;99.90;;;;;;12389128;28;20058;-36
2021/06/09 15:41:11;;;;;;;8.63;5.90;;;25.00;99.90;;;;;;12390055;28;20457;-36
2021/06/09 15:47:13;;;;;;;8.27;6.47;;;25.70;99.90;;;;;;12389285;28;20054;-36
2021/06/09 15:53:15;;;;;;;9.15;5.25;;;26.00;99.90;;;;;;12388725;28;20149;-37
2021/06/09 15:59:17;;;;;;;6.15;5.20;;;25.90;99.90;;;;;;12385657;28;20115;-36
2021/06/09 16:05:18;;;;;;;11.35;5.75;;;26.30;99.90;;;;;;12379781;28;20047;-36
2021/06/09 16:11:21;;;;;;;6.97;5.83;;;26.60;99.90;;;;;;12387975;28;20050;-38
2021/06/09 16:17:22;;;;;;;12.47;4.87;;;26.90;99.90;;;;;;12389188;28;20046;-37
2021/06/09 16:23:25;;;;;;;5.77;4.07;;;26.90;99.90;;;;;;12379748;28;20053;-36
2021/06/09 16:29:28;;;;;;;8.35;5.07;;;27.00;99.90;;;;;;12386802;28;20060;-39
2021/06/09 16:35:31;;;;;;;5.82;4.45;;;26.70;99.90;;;;;;12387326;28;20946;-38
2021/06/09 16:41:36;;;;;;;6.55;4.55;;;26.80;99.90;;;;;;12385946;28;20930;-39
2021/06/09 16:47:38;;;;;;;7.47;4.43;;;26.70;99.90;;;;;;12388439;28;20100;-38
2021/06/09 16:53:40;;;;;;;4.95;4.30;;;26.90;99.90;;;;;;12385173;28;20165;-38
2021/06/09 16:59:42;;;;;;;5.93;4.00;;;27.50;99.90;;;;;;12380376;28;20129;-37
2021/06/09 17:05:47;;;;;;;6.47;4.45;;;27.90;99.90;;;;;;12377720;28;20042;-36
2021/06/09 17:11:50;;;;;;;6.43;4.22;;;27.70;99.90;;;;;;12378913;28;20050;-37
2021/06/09 17:17:53;;;;;;;8.70;4.10;;;27.80;99.90;;;;;;12382233;28;20609;-37
2021/06/09 17:23:55;;;;;;;7.40;4.50;;;27.70;99.90;;;;;;12381272;28;20054;-38
2021/06/09 17:29:58;;;;;;;7.00;4.23;;;27.40;99.90;;;;;;12375578;28;20050;-38
2021/06/09 17:36:05;;;;;;;6.75;4.20;;;27.50;99.90;;;;;;12433000;28;20054;-36
2021/06/09 17:42:08;;;;;;;5.18;4.05;;;28.00;99.90;;;;;;12430208;28;20041;-36
2021/06/09 17:48:10;;;;;;;7.63;3.75;;;28.20;99.90;;;;;;12430942;28;20571;-36
2021/06/09 17:54:12;;;;;;;6.03;4.07;;;28.00;99.90;;;;;;12432593;28;20049;-37
2021/06/09 18:00:22;;;;;;;4.73;4.23;;;27.70;99.90;;;;;;12428050;28;20700;-37
2021/06/09 18:06:25;;;;;;;4.95;4.22;;;27.40;99.90;;;;;;12424918;28;20053;-37
2021/06/09 18:12:27;;;;;;;5.07;4.50;;;27.20;99.90;;;;;;12423244;28;20577;-37
2021/06/09 18:18:29;;;;;;;5.03;4.15;;;26.80;99.90;;;;;;12428882;28;20387;-36
2021/06/09 18:24:31;;;;;;;5.03;4.20;;;26.60;99.90;;;;;;12423284;28;20042;-37
2021/06/09 18:30:34;;;;;;;7.85;5.07;;;26.10;99.90;;;;;;12432942;28;21494;-37
2021/06/09 18:36:36;;;;;;;4.85;3.95;;;25.60;99.90;;;;;;12429151;28;20072;-37
2021/06/09 18:42:38;;;;;;;5.00;4.07;;;25.30;99.90;;;;;;12434118;28;20049;-36
2021/06/09 18:48:42;;;;;;;7.30;4.25;;;25.00;99.90;;;;;;12443278;28;20050;-37
2021/06/09 18:54:53;;;;;;;5.53;4.35;;;24.70;99.90;;;;;;12440715;28;20049;-37
2021/06/09 19:00:56;;;;;;;8.00;4.93;;;24.60;99.90;;;;;;12442156;28;20053;-37
2021/06/09 19:06:59;;;;;;;4.57;4.13;;;24.30;99.90;;;;;;12442445;28;20061;-37
2021/06/09 19:13:01;;;;;;;6.65;5.00;;;23.90;99.90;;;;;;12449653;28;20084;-38
2021/06/09 19:19:04;;;;;;;6.10;4.93;;;23.30;99.90;;;;;;12446538;28;20054;-38
2021/06/09 19:25:08;;;;;;;7.15;5.07;;;23.20;99.90;;;;;;12447729;28;20095;-36
2021/06/09 19:31:10;;;;;;;6.90;5.38;;;22.80;99.90;;;;;;12446042;28;20056;-38
2021/06/09 19:37:18;;;;;;;10.18;6.15;;;22.70;99.90;;;;;;12450265;28;20108;-36
2021/06/09 19:43:20;;;;;;;6.65;5.40;;;22.40;99.90;;;;;;12449404;28;20053;-36
2021/06/09 19:49:25;;;;;;;6.63;5.40;;;22.20;99.90;;;;;;12448727;28;20371;-36
2021/06/09 19:55:39;;;;;;;6.13;5.50;;;21.90;99.90;;;;;;12443346;28;20149;-36
2021/06/09 20:01:41;;;;;;;7.05;5.68;;;21.60;99.90;;;;;;12445296;28;20053;-37
2021/06/09 20:07:44;;;;;;;8.88;6.20;;;21.60;99.90;;;;;;12444521;28;20053;-36
2021/06/09 20:13:45;;;;;;;7.78;6.20;;;21.20;99.90;;;;;;12441301;28;20148;-37
2021/06/09 20:19:48;;;;;;;8.80;5.82;;;21.10;99.90;;;;;;12437882;28;20490;-37
2021/06/09 20:31:52;;;;;;;9.43;6.25;;;20.70;99.90;;;;;;12440085;28;20068;-36
2021/06/09 20:37:54;;;;;;;9.75;7.60;;;20.50;99.90;;;;;;12443512;28;20095;-36
2021/06/09 20:43:56;;;;;;;7.57;6.78;;;20.40;99.90;;;;;;12441391;28;20464;-36
2021/06/09 20:49:58;;;;;;;9.18;8.00;;;19.80;99.90;;;;;;12445611;28;20103;-37
2021/06/09 20:56:00;;;;;;;9.52;7.78;;;19.70;99.90;;;;;;12437813;28;20365;-36
2021/06/09 21:02:03;;;;;;;9.80;8.30;;;19.60;99.90;;;;;;12445131;28;20394;-37
2021/06/09 21:08:05;;;;;;;13.65;9.88;;;19.50;99.90;;;;;;12440460;28;20053;-37
2021/06/09 21:14:07;;;;;;;11.50;9.63;;;19.40;99.90;;;;;;12438506;28;20049;-37
2021/06/09 21:20:12;;;;;;;12.20;10.38;;;19.30;99.90;;;;;;12441520;28;20061;-38
2021/06/09 21:26:14;;;;;;;12.95;11.65;;;19.10;99.90;;;;;;12438251;28;20136;-39
2021/06/09 21:32:15;;;;;;;13.43;11.68;;;19.00;99.90;;;;;;12444034;28;20141;-36
2021/06/09 21:38:18;;;;;;;13.10;11.68;;;19.00;99.90;;;;;;12441105;28;20383;-36
2021/06/09 21:44:20;;;;;;;13.23;11.30;;;19.20;99.90;;;;;;12439146;28;20106;-37
2021/06/09 21:50:22;;;;;;;14.00;11.23;;;19.10;99.90;;;;;;12437203;28;20099;-36
2021/06/09 21:56:24;;;;;;;12.18;10.90;;;19.10;99.90;;;;;;12435126;28;20137;-35
2021/06/09 22:02:26;;;;;;;13.80;11.48;;;19.20;99.90;;;;;;12435283;28;20042;-35
2021/06/09 22:08:28;;;;;;;11.25;10.15;;;19.30;99.90;;;;;;12437709;28;20130;-36
2021/06/09 22:14:30;;;;;;;12.52;11.32;;;19.40;99.90;;;;;;12436313;28;20049;-36
2021/06/09 22:20:32;;;;;;;13.77;11.82;;;19.30;99.90;;;;;;12436838;28;21298;-36
2021/06/09 22:26:34;;;;;;;13.88;12.48;;;19.20;99.90;;;;;;12436507;28;20621;-36
2021/06/09 22:32:37;;;;;;;12.57;10.52;;;19.20;99.90;;;;;;12436808;28;20053;-38
2021/06/09 22:38:39;;;;;;;15.27;12.73;;;19.20;99.90;;;;;;12437707;28;20111;-36
2021/06/09 22:44:41;;;;;;;14.60;12.40;;;19.30;99.90;;;;;;12439603;28;20187;-36
2021/06/09 22:50:43;;;;;;;18.33;12.65;;;19.20;99.90;;;;;;12437042;28;20879;-39
2021/06/09 22:56:45;;;;;;;15.20;12.02;;;19.00;99.90;;;;;;12437373;28;20149;-36
2021/06/09 23:02:47;;;;;;;14.40;12.27;;;19.10;99.90;;;;;;12440086;28;20053;-38
2021/06/09 23:08:49;;;;;;;15.90;13.65;;;18.90;99.90;;;;;;12439010;28;20394;-41
2021/06/09 23:14:51;;;;;;;17.08;13.32;;;18.70;99.90;;;;;;12433693;28;20108;-35
2021/06/09 23:20:53;;;;;;;14.68;12.68;;;18.60;99.90;;;;;;12433763;28;20087;-35
2021/06/09 23:26:55;;;;;;;14.02;12.07;;;18.60;99.90;;;;;;12440235;28;20061;-36
2021/06/09 23:32:58;;;;;;;16.80;11.65;;;18.60;99.90;;;;;;12439203;28;20053;-35
2021/06/09 23:39:00;;;;;;;16.13;12.02;;;18.60;99.90;;;;;;12449516;28;20076;-35
2021/06/09 23:45:02;;;;;;;19.13;12.85;;;18.70;99.90;;;;;;12446033;28;20140;-35
2021/06/09 23:57:07;;;;;;;18.25;13.32;;;18.00;99.90;;;;;;12450019;28;20085;-37
